createdAt,value
2019-05-03T00:03:56.870Z,7.80
2019-05-03T00:06:45.256Z,7.90
2019-05-03T00:09:33.677Z,8.00
2019-05-03T00:12:22.246Z,7.90
2019-05-03T00:18:00.008Z,8.20
2019-05-03T00:20:48.457Z,8.00
2019-05-03T00:23:36.947Z,7.90
2019-05-03T00:26:25.377Z,8.00
2019-05-03T00:29:13.871Z,7.90
2019-05-03T00:32:02.313Z,8.00
2019-05-03T00:40:41.680Z,7.80
2019-05-03T00:43:31.857Z,7.80
2019-05-03T00:46:02.049Z,7.80
2019-05-03T00:48:52.476Z,7.80
2019-05-03T00:51:42.421Z,7.80
2019-05-03T00:54:31.751Z,7.90
2019-05-03T00:57:20.290Z,7.90
2019-05-03T01:00:08.646Z,7.90
2019-05-03T01:02:57.060Z,7.70
2019-05-03T01:05:45.440Z,7.80
2019-05-03T01:08:14.821Z,7.80
2019-05-03T01:11:03.465Z,7.70
2019-05-03T01:13:52.424Z,7.70
2019-05-03T01:16:42.713Z,7.70
2019-05-03T01:19:33.065Z,7.60
2019-05-03T01:22:22.645Z,7.70
2019-05-03T01:25:12.080Z,7.70
2019-05-03T01:28:01.698Z,7.60
2019-05-03T01:30:51.939Z,7.60
2019-05-03T01:33:40.355Z,7.50
2019-05-03T01:36:28.826Z,7.60
2019-05-03T01:39:17.183Z,7.70
2019-05-03T01:42:05.583Z,7.60
2019-05-03T01:44:54.023Z,7.70
2019-05-03T01:53:28.567Z,7.70
2019-05-03T01:56:11.720Z,7.80
2019-05-03T01:58:52.402Z,7.80
2019-05-03T02:01:51.981Z,7.80
2019-05-03T02:04:53.355Z,7.80
2019-05-03T02:07:34.129Z,7.60
2019-05-03T02:10:14.897Z,7.60
2019-05-03T02:12:56.042Z,7.60
2019-05-03T02:15:37.475Z,7.60
2019-05-03T02:18:18.421Z,7.60
2019-05-03T02:21:01.535Z,7.60
2019-05-03T02:23:42.684Z,7.60
2019-05-03T02:26:24.043Z,7.60
2019-05-03T02:29:05.542Z,7.60
2019-05-03T02:31:46.402Z,7.60
2019-05-03T02:34:32.703Z,7.70
2019-05-03T02:37:13.810Z,7.60
2019-05-03T02:39:55.534Z,7.60
2019-05-03T02:42:36.461Z,7.60
2019-05-03T02:45:25.886Z,7.50
2019-05-03T02:48:12.845Z,7.50
2019-05-03T02:50:56.072Z,7.70
2019-05-03T02:53:36.253Z,7.60
2019-05-03T02:56:22.145Z,7.60
2019-05-03T02:59:00.131Z,7.70
2019-05-03T03:01:41.177Z,7.50
2019-05-03T03:04:22.354Z,7.50
2019-05-03T03:07:05.730Z,7.50
2019-05-03T03:09:45.865Z,7.50
2019-05-03T03:12:26.691Z,7.40
2019-05-03T03:15:07.934Z,7.50
2019-05-03T03:17:48.890Z,7.50
2019-05-03T03:20:30.031Z,7.50
2019-05-03T03:23:14.537Z,7.40
2019-05-03T03:25:55.860Z,7.50
2019-05-03T03:28:36.673Z,7.40
2019-05-03T03:31:18.098Z,7.40
2019-05-03T03:33:59.749Z,7.30
2019-05-03T03:36:57.938Z,7.30
2019-05-03T03:39:26.065Z,7.30
2019-05-03T03:42:06.096Z,7.30
2019-05-03T03:45:16.619Z,7.30
2019-05-03T03:47:58.169Z,7.20
2019-05-03T03:50:39.203Z,7.30
2019-05-03T03:53:20.468Z,7.30
2019-05-03T03:56:01.801Z,7.30
2019-05-03T03:58:42.391Z,7.30
2019-05-03T04:01:26.389Z,7.20
2019-05-03T04:04:06.580Z,7.30
2019-05-03T04:06:47.750Z,7.20
2019-05-03T04:09:28.875Z,7.20
2019-05-03T04:12:09.956Z,7.10
2019-05-03T04:14:57.043Z,7.10
2019-05-03T04:17:46.106Z,7.10
2019-05-03T04:20:29.017Z,7.20
2019-05-03T04:23:10.397Z,7.20
2019-05-03T04:25:51.596Z,7.10
2019-05-03T04:28:32.929Z,7.10
2019-05-03T04:31:15.219Z,7.10
2019-05-03T04:33:56.408Z,7.20
2019-05-03T04:36:37.375Z,7.10
2019-05-03T04:39:20.223Z,7.00
2019-05-03T04:42:01.565Z,7.10
2019-05-03T04:44:42.126Z,7.10
2019-05-03T04:47:23.112Z,7.10
2019-05-03T04:50:05.602Z,7.10
2019-05-03T04:52:46.843Z,7.20
2019-05-03T04:55:27.848Z,7.20
2019-05-03T04:58:08.930Z,7.30
2019-05-03T05:00:49.506Z,7.20
2019-05-03T05:03:32.657Z,7.10
2019-05-03T05:06:15.483Z,7.20
2019-05-03T05:08:56.255Z,7.20
2019-05-03T05:11:36.851Z,7.20
2019-05-03T05:14:18.090Z,7.20
2019-05-03T05:16:59.623Z,7.10
2019-05-03T05:19:46.375Z,7.10
2019-05-03T05:22:29.837Z,7.20
2019-05-03T05:25:15.062Z,7.30
2019-05-03T05:28:15.031Z,7.20
2019-05-03T05:30:55.837Z,7.30
2019-05-03T05:33:36.340Z,7.20
2019-05-03T05:36:17.711Z,7.30
2019-05-03T05:38:58.609Z,7.30
2019-05-03T05:41:39.789Z,7.30
2019-05-03T05:44:20.894Z,7.30
2019-05-03T05:50:22.295Z,7.30
2019-05-03T05:53:10.722Z,7.20
2019-05-03T05:56:18.100Z,7.30
2019-05-03T05:59:25.467Z,7.30
2019-05-03T06:04:55.937Z,7.30
2019-05-03T06:08:04.803Z,7.30
2019-05-03T06:14:24.379Z,7.20
2019-05-03T06:17:31.377Z,7.20
2019-05-03T06:20:38.673Z,7.30
2019-05-03T06:23:45.991Z,7.20
2019-05-03T06:26:54.650Z,7.20
2019-05-03T06:32:52.459Z,7.30
2019-05-03T06:35:40.835Z,7.30
2019-05-03T06:38:29.205Z,7.40
2019-05-03T06:41:17.532Z,7.50
2019-05-03T06:44:05.956Z,7.50
2019-05-03T06:46:48.042Z,7.60
2019-05-03T06:49:28.787Z,7.70
2019-05-03T06:52:09.486Z,7.50
2019-05-03T06:54:50.377Z,7.60
2019-05-03T06:57:31.161Z,7.70
2019-05-03T07:03:48.748Z,7.60
2019-05-03T07:06:40.579Z,7.60
2019-05-03T07:09:26.145Z,7.60
2019-05-03T07:12:07.692Z,7.70
2019-05-03T07:14:50.475Z,7.70
2019-05-03T07:17:31.444Z,7.70
2019-05-03T07:20:14.739Z,7.40
2019-05-03T07:22:56.162Z,7.40
2019-05-03T07:25:37.454Z,7.20
2019-05-03T07:28:18.867Z,7.30
2019-05-03T07:31:00.246Z,7.30
2019-05-03T07:36:39.575Z,7.30
2019-05-03T07:39:27.976Z,7.40
2019-05-03T07:42:16.414Z,7.50
2019-05-03T07:45:05.078Z,7.70
2019-05-03T07:47:46.189Z,7.80
2019-05-03T07:50:27.661Z,7.90
2019-05-03T07:53:08.994Z,7.90
2019-05-03T07:55:54.762Z,8.00
2019-05-03T07:58:36.179Z,8.10
2019-05-03T08:01:22.045Z,8.10
2019-05-03T08:04:05.276Z,8.30
2019-05-03T08:06:46.327Z,8.30
2019-05-03T08:09:27.823Z,8.30
2019-05-03T08:12:08.482Z,8.50
2019-05-03T08:14:49.646Z,8.40
2019-05-03T08:17:30.469Z,8.60
2019-05-03T08:20:11.466Z,9.00
2019-05-03T08:22:54.715Z,9.00
2019-05-03T08:25:35.536Z,9.20
2019-05-03T08:28:16.708Z,9.00
2019-05-03T08:34:28.370Z,8.90
2019-05-03T08:37:28.141Z,8.90
2019-05-03T08:40:09.022Z,9.00
2019-05-03T08:42:50.168Z,8.90
2019-05-03T08:45:30.961Z,8.60
2019-05-03T08:48:14.864Z,8.60
2019-05-03T08:50:55.414Z,8.80
2019-05-03T08:56:34.975Z,8.70
2019-05-03T08:59:26.779Z,8.80
2019-05-03T09:02:03.692Z,9.10
2019-05-03T09:04:43.162Z,9.30
2019-05-03T09:07:25.323Z,9.40
2019-05-03T09:10:25.736Z,9.40
2019-05-03T09:13:25.824Z,9.80
2019-05-03T09:16:05.582Z,9.70
2019-05-03T09:18:54.933Z,9.20
2019-05-03T09:21:45.358Z,9.20
2019-05-03T09:24:35.162Z,8.80
2019-05-03T09:27:24.781Z,8.90
2019-05-03T09:30:14.699Z,9.00
2019-05-03T09:33:04.901Z,9.20
2019-05-03T09:35:55.022Z,9.40
2019-05-03T09:38:45.541Z,9.50
2019-05-03T09:41:34.755Z,9.60
2019-05-03T09:44:24.479Z,9.90
2019-05-03T09:47:06.915Z,9.50
2019-05-03T09:49:48.066Z,9.50
2019-05-03T09:52:29.280Z,9.40
2019-05-03T09:55:14.551Z,9.50
2019-05-03T09:57:55.622Z,9.50
2019-05-03T10:00:36.606Z,9.40
2019-05-03T10:03:17.511Z,9.50
2019-05-03T10:05:58.645Z,9.70
2019-05-03T10:08:40.217Z,9.70
2019-05-03T10:11:21.426Z,9.60
2019-05-03T10:14:04.590Z,9.90
2019-05-03T10:17:05.430Z,10.50
2019-05-03T10:19:47.104Z,10.20
2019-05-03T10:22:28.686Z,10.20
2019-05-03T10:25:09.500Z,10.50
2019-05-03T10:27:50.904Z,10.20
2019-05-03T10:30:31.991Z,9.80
2019-05-03T10:33:17.635Z,10.00
2019-05-03T10:35:58.677Z,10.10
2019-05-03T10:38:39.694Z,10.40
2019-05-03T10:41:20.386Z,10.40
2019-05-03T10:44:01.572Z,10.40
2019-05-03T10:46:42.138Z,10.30
2019-05-03T10:49:24.511Z,10.30
2019-05-03T10:52:07.486Z,10.20
2019-05-03T10:54:48.280Z,9.90
2019-05-03T10:57:31.172Z,9.80
2019-05-03T11:00:39.394Z,9.80
2019-05-03T11:02:59.833Z,10.10
2019-05-03T11:05:40.697Z,10.00
2019-05-03T11:08:21.777Z,10.00
2019-05-03T11:11:03.203Z,9.90
2019-05-03T11:13:44.507Z,10.10
2019-05-03T11:16:25.553Z,10.30
2019-05-03T11:19:07.166Z,10.60
2019-05-03T11:21:48.099Z,10.50
2019-05-03T11:24:29.155Z,10.80
2019-05-03T11:27:16.406Z,10.80
2019-05-03T11:29:59.221Z,10.50
2019-05-03T11:33:01.740Z,10.10
2019-05-03T11:36:02.066Z,10.20
2019-05-03T11:38:45.585Z,10.40
2019-05-03T11:41:32.108Z,11.20
2019-05-03T11:44:29.880Z,11.60
2019-05-03T11:47:11.323Z,11.50
2019-05-03T11:49:51.871Z,11.10
2019-05-03T11:52:35.605Z,10.50
2019-05-03T11:55:16.075Z,10.90
2019-05-03T11:57:57.471Z,11.00
2019-05-03T12:00:40.365Z,10.90
2019-05-03T12:06:36.639Z,10.50
2019-05-03T12:09:16.646Z,10.50
2019-05-03T12:11:58.530Z,10.70
2019-05-03T12:17:28.835Z,11.20
2019-05-03T12:20:08.808Z,11.20
2019-05-03T12:22:50.719Z,11.40
2019-05-03T12:25:32.180Z,11.20
2019-05-03T12:28:15.295Z,11.10
2019-05-03T12:30:56.209Z,11.10
2019-05-03T12:33:37.962Z,11.40
2019-05-03T12:39:26.766Z,11.60
2019-05-03T12:42:00.167Z,11.30
2019-05-03T12:44:41.378Z,10.90
2019-05-03T12:47:22.549Z,10.90
2019-05-03T12:50:05.294Z,11.50
2019-05-03T12:52:50.501Z,11.60
2019-05-03T12:55:29.096Z,11.90
2019-05-03T12:58:10.823Z,11.80
2019-05-03T13:01:10.422Z,12.20
2019-05-03T13:04:05.865Z,11.90
2019-05-03T13:06:54.929Z,11.10
2019-05-03T13:09:35.818Z,10.80
2019-05-03T13:12:18.835Z,10.80
2019-05-03T13:15:00.257Z,10.70
2019-05-03T13:17:41.637Z,10.80
2019-05-03T13:20:24.630Z,10.90
2019-05-03T13:23:05.931Z,10.80
2019-05-03T13:25:47.434Z,11.20
2019-05-03T13:28:28.107Z,11.20
2019-05-03T13:31:09.612Z,11.00
2019-05-03T13:33:50.252Z,11.50
2019-05-03T13:39:14.651Z,11.40
2019-05-03T13:41:56.079Z,11.70
2019-05-03T13:44:36.665Z,11.80
2019-05-03T13:47:18.105Z,11.60
2019-05-03T13:49:59.251Z,11.40
2019-05-03T13:52:40.801Z,11.30
2019-05-03T13:55:22.086Z,11.40
2019-05-03T13:58:05.099Z,11.40
2019-05-03T14:03:28.681Z,10.80
2019-05-03T14:06:09.956Z,10.90
2019-05-03T14:08:51.030Z,11.00
2019-05-03T14:11:32.314Z,11.20
2019-05-03T14:14:15.233Z,11.30
2019-05-03T14:16:56.889Z,11.30
2019-05-03T14:22:26.262Z,11.30
2019-05-03T14:25:07.771Z,11.20
2019-05-03T14:27:48.267Z,10.90
2019-05-03T14:30:29.054Z,10.80
2019-05-03T14:33:10.344Z,10.80
2019-05-03T14:35:51.731Z,10.80
2019-05-03T14:38:32.544Z,11.10
2019-05-03T14:41:15.086Z,11.20
2019-05-03T16:23:28.380Z,9.50
2019-05-03T16:26:09.854Z,8.80
2019-05-03T16:28:50.873Z,8.70
2019-05-03T16:31:34.330Z,8.60
2019-05-03T16:43:02.936Z,8.50
2019-05-03T16:45:44.607Z,8.60
2019-05-03T16:48:25.633Z,8.70
2019-05-03T16:51:06.677Z,8.80
2019-05-03T16:53:47.803Z,8.60
2019-05-03T16:56:29.116Z,8.70
2019-05-03T16:59:09.776Z,8.70
2019-05-03T17:01:51.157Z,8.50
2019-05-03T17:04:51.400Z,8.50
2019-05-03T17:10:45.401Z,8.40
2019-05-03T17:13:26.880Z,8.30
2019-05-03T17:16:08.286Z,8.20
2019-05-03T17:18:49.361Z,8.20
2019-05-03T17:21:30.595Z,8.20
2019-05-03T17:24:11.239Z,8.10
2019-05-03T17:26:52.606Z,8.10
2019-05-03T17:29:35.094Z,8.00
2019-05-03T17:32:17.032Z,8.10
2019-05-03T17:34:59.662Z,8.10
2019-05-03T17:37:41.241Z,8.10
2019-05-03T17:40:41.742Z,8.10
2019-05-03T17:43:47.683Z,8.10
2019-05-03T17:46:28.663Z,8.20
2019-05-03T17:49:09.951Z,8.10
2019-05-03T17:52:10.149Z,8.20
2019-05-03T17:55:10.225Z,8.20
2019-05-03T17:58:01.061Z,8.30
2019-05-03T18:03:47.432Z,8.20
2019-05-03T18:06:31.457Z,8.20
2019-05-03T18:12:36.875Z,8.00
2019-05-03T18:18:01.388Z,7.90
2019-05-03T18:20:42.141Z,7.90
2019-05-03T18:23:24.612Z,7.90
2019-05-03T18:26:05.398Z,7.90
2019-05-03T18:28:46.632Z,8.00
2019-05-03T18:31:27.522Z,8.00
2019-05-03T18:34:18.703Z,8.00
2019-05-03T18:36:51.707Z,8.00
2019-05-03T18:39:34.541Z,8.00
2019-05-03T18:42:21.048Z,8.00
2019-05-03T18:45:08.053Z,8.00
2019-05-03T18:47:48.978Z,8.20
2019-05-03T18:50:30.272Z,8.30
2019-05-03T18:53:11.611Z,8.30
2019-05-03T18:55:52.294Z,8.40
2019-05-03T18:58:33.696Z,8.40
2019-05-03T19:01:14.959Z,8.50
2019-05-03T19:04:01.325Z,8.50
2019-05-03T19:06:42.069Z,8.60
2019-05-03T19:12:52.737Z,8.70
2019-05-03T19:15:34.693Z,8.60
2019-05-03T19:21:15.735Z,8.40
2019-05-03T19:23:56.836Z,8.20
2019-05-03T19:26:37.711Z,8.20
2019-05-03T19:29:19.125Z,8.10
2019-05-03T19:32:00.367Z,8.10
2019-05-03T19:34:48.463Z,8.10
2019-05-03T19:37:14.209Z,8.30
2019-05-03T19:40:02.444Z,8.40
2019-05-03T19:45:59.578Z,8.40
2019-05-03T19:48:48.346Z,8.30
2019-05-03T19:51:36.708Z,8.30
2019-05-03T19:54:25.115Z,8.30
2019-05-03T20:00:08.894Z,8.30
2019-05-03T20:03:01.414Z,8.20
2019-05-03T20:06:09.241Z,8.20
2019-05-03T20:09:01.891Z,8.20
2019-05-03T20:11:50.403Z,8.30
2019-05-03T20:14:38.803Z,8.30
2019-05-03T20:17:27.524Z,8.30
2019-05-03T20:20:16.017Z,8.20
2019-05-03T20:23:05.279Z,8.20
2019-05-03T20:25:54.708Z,8.10
2019-05-03T20:28:44.916Z,8.10
2019-05-03T20:31:35.376Z,8.10
2019-05-03T20:34:05.917Z,8.10
2019-05-03T20:36:47.003Z,8.10
2019-05-03T20:39:28.095Z,8.00
2019-05-03T20:42:09.365Z,7.90
2019-05-03T20:47:59.813Z,7.90
2019-05-03T20:50:40.855Z,8.00
2019-05-03T20:53:22.268Z,8.00
2019-05-03T20:56:05.110Z,8.00
2019-05-03T21:01:45.336Z,8.10
2019-05-03T21:04:30.104Z,8.20
2019-05-03T21:09:54.990Z,8.10
2019-05-03T21:12:34.782Z,8.30
2019-05-03T21:21:50.893Z,8.40
2019-05-03T21:24:58.240Z,8.30
2019-05-03T21:27:46.782Z,8.20
2019-05-03T21:30:35.292Z,8.20
2019-05-03T21:33:25.794Z,8.10
2019-05-03T21:36:07.533Z,8.10
2019-05-03T21:38:48.761Z,8.10
2019-05-03T21:41:29.771Z,8.20
2019-05-03T21:47:25.059Z,8.00
2019-05-03T21:50:08.554Z,8.10
2019-05-03T21:52:49.551Z,8.20
2019-05-03T21:55:30.311Z,8.30
2019-05-03T21:58:10.994Z,8.30
2019-05-03T22:03:53.838Z,8.10
2019-05-03T22:06:44.293Z,8.10
2019-05-03T22:09:32.357Z,8.00
2019-05-03T22:12:21.004Z,7.90
2019-05-03T22:18:08.939Z,8.20
2019-05-03T22:21:16.317Z,8.30
2019-05-03T22:24:25.250Z,8.30
2019-05-03T22:27:32.642Z,8.40
2019-05-03T22:30:22.042Z,8.30
2019-05-03T22:33:10.504Z,8.20
2019-05-03T22:36:07.850Z,8.10
2019-05-03T22:38:38.442Z,8.10
2019-05-03T22:41:19.461Z,7.90
2019-05-03T22:44:00.856Z,7.90
2019-05-03T22:46:30.243Z,7.90
2019-05-03T22:49:18.991Z,7.80
2019-05-03T22:52:07.398Z,7.80
2019-05-03T22:54:55.761Z,7.70
2019-05-03T22:57:44.198Z,7.70
2019-05-03T23:00:32.617Z,7.70
2019-05-03T23:03:20.937Z,7.60
2019-05-03T23:06:19.490Z,7.50
2019-05-03T23:08:59.402Z,7.50
2019-05-03T23:11:47.753Z,7.60
2019-05-03T23:14:36.129Z,7.60
2019-05-03T23:17:25.437Z,7.60
2019-05-03T23:23:40.221Z,7.50
2019-05-03T23:26:28.607Z,7.30
2019-05-03T23:29:16.997Z,7.00
2019-05-03T23:32:05.374Z,6.80
2019-05-03T23:34:46.759Z,6.70
2019-05-03T23:37:27.772Z,6.70
2019-05-03T23:40:08.745Z,6.70
2019-05-03T23:42:50.236Z,6.60
2019-05-03T23:45:31.303Z,6.60
2019-05-03T23:48:15.045Z,6.50
2019-05-03T23:50:56.015Z,6.40
2019-05-03T23:53:37.266Z,6.30
2019-05-03T23:56:20.205Z,6.20
2019-05-03T23:59:00.985Z,6.10
